Terminal Aerodrome Forecast
Issued by NWS

Home | Current Version | Previous Version | Text Only | Print | Product List | Glossary On
Versions: 1 2 3 4 5 6 7 8 9 10 11 12 13 14 15 16 17 18 19 20 21 22 23 24 25
000
FTUS45 KFGZ 062340
TAFGCN
TAF
KGCN 062340Z 0700/0724 22013G23KT P6SM VCTS SCT080CB BKN100
      TEMPO 0700/0701 VRB20G30KT
     FM070100 VRB06KT P6SM FEW050 SCT150
     FM071700 21015G25KT P6SM BKN200=

USA.gov is the U.S. government's official web portal to all federal, state and local government web resources and services.